createdAt,value
2018-12-25T00:00:04.303Z,23.17
2018-12-25T00:02:34.646Z,24.20
2018-12-25T00:05:04.884Z,23.87
2018-12-25T00:07:35.041Z,24.10
2018-12-25T00:10:05.180Z,25.43
2018-12-25T00:12:37.088Z,26.47
2018-12-25T00:15:07.149Z,24.07
2018-12-25T00:17:37.310Z,25.53
2018-12-25T00:20:07.378Z,25.03
2018-12-25T00:22:37.481Z,24.07
2018-12-25T00:25:07.603Z,25.20
2018-12-25T00:27:37.834Z,24.73
2018-12-25T00:30:08.318Z,24.37
2018-12-25T00:32:38.457Z,26.93
2018-12-25T00:35:09.133Z,28.73
2018-12-25T00:37:39.230Z,27.10
2018-12-25T00:40:09.363Z,31.63
2018-12-25T00:42:39.647Z,28.83
2018-12-25T00:45:09.943Z,28.03
2018-12-25T00:47:41.925Z,30.10
2018-12-25T00:50:12.145Z,27.67
2018-12-25T00:52:42.345Z,26.23
2018-12-25T00:55:12.574Z,29.23
2018-12-25T00:57:42.752Z,25.50
2018-12-25T01:00:12.923Z,26.33
2018-12-25T01:02:43.193Z,28.33
2018-12-25T01:05:13.340Z,29.47
2018-12-25T01:07:43.662Z,29.67
2018-12-25T01:10:13.761Z,29.83
2018-12-25T01:12:44.144Z,33.17
2018-12-25T01:15:14.205Z,29.53
2018-12-25T01:17:44.453Z,28.03
2018-12-25T01:20:14.663Z,26.03
2018-12-25T01:22:44.738Z,25.13
2018-12-25T01:25:14.994Z,26.87
2018-12-25T01:27:45.355Z,27.37
2018-12-25T01:30:15.420Z,28.47
2018-12-25T01:32:45.525Z,26.10
2018-12-25T01:35:17.537Z,29.03
2018-12-25T01:37:47.709Z,27.37
2018-12-25T01:40:17.799Z,28.23
2018-12-25T01:42:47.946Z,29.37
2018-12-25T01:45:17.977Z,29.37
2018-12-25T01:47:48.062Z,29.37
2018-12-25T01:50:18.340Z,29.57
2018-12-25T01:52:48.391Z,32.67
2018-12-25T01:55:18.445Z,28.40
2018-12-25T01:57:48.601Z,28.30
2018-12-25T02:00:18.649Z,26.77
2018-12-25T02:02:48.803Z,33.57
2018-12-25T02:05:19.139Z,37.07
2018-12-25T02:07:49.300Z,34.10
2018-12-25T02:10:19.443Z,34.83
2018-12-25T02:12:49.798Z,32.17
2018-12-25T02:15:19.933Z,32.50
2018-12-25T02:17:50.237Z,34.67
2018-12-25T02:20:20.331Z,33.03
2018-12-25T02:22:50.679Z,34.63
2018-12-25T02:25:20.813Z,33.17
2018-12-25T02:28:09.212Z,35.33
2018-12-25T02:30:39.257Z,35.27
2018-12-25T02:33:09.347Z,31.67
2018-12-25T02:35:39.450Z,30.53
2018-12-25T02:38:09.629Z,32.87
2018-12-25T02:40:39.750Z,31.87
2018-12-25T02:43:10.038Z,30.23
2018-12-25T02:45:40.128Z,30.30
2018-12-25T02:48:10.315Z,30.30
2018-12-25T02:50:40.482Z,34.50
2018-12-25T02:53:10.795Z,31.87
2018-12-25T02:58:21.939Z,32.33
2018-12-25T03:00:52.150Z,33.27
2018-12-25T03:03:22.302Z,34.93
2018-12-25T03:05:52.622Z,31.00
2018-12-25T03:08:22.758Z,33.90
2018-12-25T03:10:52.830Z,33.63
2018-12-25T03:13:22.897Z,32.57
2018-12-25T03:15:53.040Z,33.73
2018-12-25T03:18:23.479Z,33.23
2018-12-25T03:20:53.603Z,33.00
2018-12-25T03:23:23.742Z,37.33
2018-12-25T03:25:53.892Z,33.37
2018-12-25T03:28:24.028Z,37.07
2018-12-25T03:30:54.191Z,33.37
2018-12-25T03:33:24.425Z,32.63
2018-12-25T03:35:54.668Z,32.57
2018-12-25T03:38:24.905Z,30.93
2018-12-25T03:40:54.998Z,31.73
2018-12-25T03:43:25.144Z,30.03
2018-12-25T03:45:55.304Z,31.33
2018-12-25T03:48:25.526Z,33.17
2018-12-25T03:50:55.645Z,34.73
2018-12-25T03:53:26.077Z,33.00
2018-12-25T03:55:56.195Z,31.77
2018-12-25T03:58:26.342Z,32.37
2018-12-25T04:00:56.495Z,36.83
2018-12-25T04:03:26.830Z,35.53
2018-12-25T04:05:56.965Z,36.80
2018-12-25T04:08:27.100Z,35.83
2018-12-25T04:10:57.611Z,34.60
2018-12-25T04:13:27.750Z,34.93
2018-12-25T04:15:57.949Z,35.03
2018-12-25T04:18:28.194Z,35.43
2018-12-25T04:20:58.268Z,36.90
2018-12-25T04:23:28.383Z,35.03
2018-12-25T04:25:58.488Z,34.23
2018-12-25T04:28:28.776Z,34.27
2018-12-25T04:30:58.908Z,35.00
2018-12-25T04:33:29.107Z,35.93
2018-12-25T04:35:59.276Z,34.30
2018-12-25T04:38:29.501Z,35.03
2018-12-25T04:40:59.661Z,35.63
2018-12-25T04:43:29.954Z,33.07
2018-12-25T04:46:00.077Z,33.77
2018-12-25T04:48:30.355Z,32.97
2018-12-25T04:51:00.736Z,32.23
2018-12-25T04:53:30.821Z,31.90
2018-12-25T04:56:00.948Z,32.30
2018-12-25T04:58:31.070Z,30.73
2018-12-25T05:01:01.366Z,28.50
2018-12-25T05:03:31.605Z,29.40
2018-12-25T05:06:01.745Z,27.67
2018-12-25T05:08:31.995Z,28.20
2018-12-25T05:11:02.222Z,28.50
2018-12-25T05:13:32.379Z,26.40
2018-12-25T05:16:02.461Z,27.87
2018-12-25T05:18:32.746Z,25.17
2018-12-25T05:21:02.872Z,26.60
2018-12-25T05:23:33.092Z,26.73
2018-12-25T05:26:03.323Z,27.03
2018-12-25T05:28:33.477Z,26.97
2018-12-25T05:31:03.760Z,28.30
2018-12-25T05:33:33.918Z,27.83
2018-12-25T05:36:04.155Z,28.43
2018-12-25T05:38:34.317Z,27.97
2018-12-25T05:41:04.447Z,25.73
2018-12-25T05:43:34.678Z,26.90
2018-12-25T05:46:04.960Z,24.90
2018-12-25T05:48:35.104Z,24.50
2018-12-25T05:51:05.321Z,23.83
2018-12-25T05:53:35.702Z,24.57
2018-12-25T05:56:05.828Z,25.47
2018-12-25T05:58:35.893Z,25.43
2018-12-25T06:01:06.182Z,24.47
2018-12-25T06:03:36.499Z,23.77
2018-12-25T06:06:06.550Z,23.83
2018-12-25T06:08:36.692Z,25.07
2018-12-25T06:11:06.875Z,26.37
2018-12-25T06:13:37.170Z,26.23
2018-12-25T06:16:07.353Z,24.97
2018-12-25T06:18:37.490Z,25.10
2018-12-25T06:21:07.715Z,24.90
2018-12-25T06:23:37.877Z,25.63
2018-12-25T06:26:08.206Z,24.77
2018-12-25T06:28:38.381Z,24.27
2018-12-25T06:31:08.546Z,25.17
2018-12-25T06:33:38.675Z,25.47
2018-12-25T06:36:08.851Z,26.07
2018-12-25T06:38:39.202Z,25.87
2018-12-25T06:41:09.312Z,24.83
2018-12-25T06:43:39.531Z,29.80
2018-12-25T06:46:09.614Z,25.43
2018-12-25T06:48:39.766Z,24.90
2018-12-25T06:51:10.202Z,27.20
2018-12-25T06:53:40.338Z,26.53
2018-12-25T06:56:10.454Z,25.23
2018-12-25T06:58:40.700Z,29.67
2018-12-25T07:01:10.865Z,28.43
2018-12-25T07:03:41.111Z,26.40
2018-12-25T07:06:11.249Z,28.30
2018-12-25T07:08:41.445Z,25.50
2018-12-25T07:11:14.539Z,28.93
2018-12-25T07:13:44.706Z,30.67
2018-12-25T07:16:14.889Z,28.13
2018-12-25T07:18:45.110Z,26.70
2018-12-25T07:21:15.356Z,25.07
2018-12-25T07:23:45.537Z,24.57
2018-12-25T07:26:15.707Z,24.93
2018-12-25T07:28:45.953Z,26.57
2018-12-25T07:31:16.140Z,27.27
2018-12-25T07:33:46.564Z,27.53
2018-12-25T07:36:16.642Z,27.37
2018-12-25T07:38:46.861Z,27.20
2018-12-25T07:41:17.238Z,29.13
2018-12-25T07:43:47.481Z,27.57
2018-12-25T07:46:17.628Z,28.33
2018-12-25T07:48:47.701Z,27.20
2018-12-25T07:51:20.862Z,27.30
2018-12-25T07:53:49.534Z,28.43
2018-12-25T07:56:19.701Z,27.83
2018-12-25T07:58:49.760Z,27.80
2018-12-25T08:01:19.960Z,28.73
2018-12-25T08:03:50.255Z,27.27
2018-12-25T08:06:20.486Z,28.37
2018-12-25T08:08:50.573Z,30.00
2018-12-25T08:11:20.740Z,33.03
2018-12-25T08:13:50.820Z,31.20
2018-12-25T08:16:20.989Z,32.07
2018-12-25T08:18:51.109Z,30.67
2018-12-25T08:21:29.106Z,35.73
2018-12-25T08:23:53.130Z,33.13
2018-12-25T08:26:23.190Z,31.50
2018-12-25T08:28:53.268Z,31.33
2018-12-25T08:31:23.460Z,33.73
2018-12-25T08:33:53.706Z,30.93
2018-12-25T08:36:23.826Z,30.60
2018-12-25T08:38:53.966Z,31.83
2018-12-25T08:41:24.092Z,30.77
2018-12-25T08:43:54.182Z,29.37
2018-12-25T08:46:24.387Z,30.00
2018-12-25T08:48:54.540Z,29.67
2018-12-25T08:51:24.950Z,29.87
2018-12-25T08:53:55.137Z,30.60
2018-12-25T08:56:25.278Z,30.53
2018-12-25T08:58:55.519Z,31.80
2018-12-25T09:01:25.728Z,34.10
2018-12-25T09:03:55.810Z,32.53
2018-12-25T09:06:25.973Z,36.83
2018-12-25T09:08:56.203Z,36.73
2018-12-25T09:11:26.317Z,37.07
2018-12-25T09:13:56.500Z,34.57
2018-12-25T09:16:26.541Z,35.60
2018-12-25T09:18:56.689Z,33.33
2018-12-25T09:21:27.100Z,32.30
2018-12-25T09:23:57.321Z,30.10
2018-12-25T09:26:27.550Z,32.17
2018-12-25T09:28:57.625Z,29.87
2018-12-25T09:31:27.723Z,27.53
2018-12-25T09:33:59.668Z,23.03
2018-12-25T09:36:29.752Z,22.97
2018-12-25T09:38:59.908Z,20.63
2018-12-25T09:41:30.027Z,22.00
2018-12-25T09:44:00.084Z,20.80
2018-12-25T09:46:30.223Z,22.93
2018-12-25T09:49:00.365Z,24.30
2018-12-25T09:51:30.442Z,25.83
2018-12-25T09:54:00.627Z,24.43
2018-12-25T09:56:30.687Z,21.50
2018-12-25T09:59:00.860Z,21.67
2018-12-25T10:01:31.034Z,23.07
2018-12-25T10:04:01.272Z,20.73
2018-12-25T10:06:31.356Z,22.83
2018-12-25T10:09:01.663Z,21.90
2018-12-25T10:11:31.824Z,20.40
2018-12-25T10:14:02.055Z,19.63
2018-12-25T10:16:32.282Z,20.17
2018-12-25T10:19:02.375Z,21.67
2018-12-25T10:21:32.737Z,20.73
2018-12-25T10:24:02.912Z,19.73
2018-12-25T10:26:33.031Z,20.97
2018-12-25T10:29:03.368Z,19.07
2018-12-25T10:31:33.488Z,18.73
2018-12-25T10:34:03.823Z,18.10
2018-12-25T10:36:34.101Z,18.57
2018-12-25T10:39:05.932Z,17.20
2018-12-25T10:41:36.185Z,15.57
2018-12-25T10:44:06.398Z,16.77
2018-12-25T10:46:36.499Z,16.43
2018-12-25T10:49:06.701Z,15.40
2018-12-25T10:51:36.947Z,15.10
2018-12-25T10:54:07.174Z,15.27
2018-12-25T10:56:40.376Z,18.03
2018-12-25T10:59:10.554Z,15.73
2018-12-25T11:01:40.856Z,15.93
2018-12-25T11:04:11.047Z,16.37
2018-12-25T11:06:42.341Z,15.47
2018-12-25T11:09:13.966Z,16.03
2018-12-25T11:11:44.464Z,15.80
2018-12-25T11:14:14.746Z,16.30
2018-12-25T11:16:44.948Z,15.50
2018-12-25T11:19:15.135Z,15.20
2018-12-25T11:21:45.242Z,15.83
2018-12-25T11:24:15.787Z,15.87
2018-12-25T11:26:45.862Z,17.33
2018-12-25T11:29:15.984Z,15.50
2018-12-25T11:31:46.127Z,15.60
2018-12-25T11:34:16.360Z,15.50
2018-12-25T11:36:47.042Z,15.40
2018-12-25T11:39:17.639Z,14.90
2018-12-25T11:41:47.870Z,14.07
2018-12-25T11:44:18.351Z,14.57
2018-12-25T11:46:48.618Z,13.73
2018-12-25T11:49:18.743Z,14.00
2018-12-25T11:51:48.923Z,14.03
2018-12-25T11:54:19.104Z,14.23
2018-12-25T11:56:49.372Z,14.00
2018-12-25T11:59:19.564Z,14.20
2018-12-25T12:01:49.781Z,13.87
2018-12-25T12:04:20.023Z,14.50
2018-12-25T12:06:50.316Z,12.77
2018-12-25T12:09:20.533Z,12.67
2018-12-25T12:11:54.102Z,13.23
2018-12-25T12:14:24.328Z,13.40
2018-12-25T12:16:54.527Z,12.60
2018-12-25T12:19:24.748Z,12.80
2018-12-25T12:21:54.947Z,13.43
2018-12-25T12:24:25.059Z,13.33
2018-12-25T12:26:55.308Z,13.17
2018-12-25T12:29:25.448Z,13.27
2018-12-25T12:31:55.746Z,12.53
2018-12-25T12:34:25.873Z,12.57
2018-12-25T12:36:56.280Z,13.20
2018-12-25T12:39:26.529Z,11.60
2018-12-25T12:41:56.572Z,10.40
2018-12-25T12:44:26.645Z,12.90
2018-12-25T12:46:56.841Z,11.17
2018-12-25T12:49:27.042Z,12.10
2018-12-25T12:51:57.432Z,10.60
2018-12-25T12:54:28.161Z,10.10
2018-12-25T12:56:58.757Z,10.73
2018-12-25T12:59:28.959Z,10.50
2018-12-25T13:01:59.252Z,9.13
2018-12-25T13:04:29.477Z,10.13
2018-12-25T13:06:59.673Z,10.23
2018-12-25T13:09:29.948Z,10.33
2018-12-25T13:12:02.685Z,10.83
2018-12-25T13:14:32.998Z,9.70
2018-12-25T13:17:03.148Z,10.63
2018-12-25T13:19:33.530Z,9.90
2018-12-25T13:22:03.749Z,10.20
2018-12-25T13:24:36.468Z,9.63
2018-12-25T13:27:07.421Z,9.37
2018-12-25T13:29:37.977Z,9.30
2018-12-25T13:32:08.257Z,10.57
2018-12-25T13:34:38.537Z,10.30
2018-12-25T13:37:08.937Z,10.20
2018-12-25T13:39:39.374Z,9.30
2018-12-25T13:42:11.032Z,9.90
2018-12-25T13:44:41.209Z,10.20
2018-12-25T13:47:11.658Z,10.10
2018-12-25T13:49:41.811Z,8.73
2018-12-25T13:52:15.515Z,8.77
2018-12-25T13:54:45.836Z,8.30
2018-12-25T13:57:18.643Z,7.90
2018-12-25T13:59:48.701Z,7.83
2018-12-25T14:02:19.116Z,8.20
2018-12-25T14:04:49.237Z,8.00
2018-12-25T14:07:21.780Z,7.33
2018-12-25T14:09:51.877Z,7.13
2018-12-25T14:12:22.078Z,8.37
2018-12-25T14:14:54.258Z,8.43
2018-12-25T14:17:24.463Z,9.63
2018-12-25T14:19:54.738Z,9.03
2018-12-25T14:22:24.852Z,9.57
2018-12-25T14:24:55.165Z,9.70
2018-12-25T14:27:25.232Z,9.77
2018-12-25T14:29:55.441Z,10.13
2018-12-25T14:32:25.766Z,10.60
2018-12-25T14:34:56.042Z,10.10
2018-12-25T14:37:27.582Z,10.47
2018-12-25T14:39:57.700Z,10.60
2018-12-25T14:42:27.789Z,10.83
2018-12-25T14:44:57.956Z,12.10
2018-12-25T14:47:28.024Z,11.87
2018-12-25T14:49:58.160Z,11.83
2018-12-25T14:52:28.296Z,12.13
2018-12-25T14:54:58.565Z,12.73
2018-12-25T14:57:28.928Z,12.17
2018-12-25T14:59:59.286Z,12.80
2018-12-25T15:02:29.492Z,12.93
2018-12-25T15:04:59.868Z,12.57
2018-12-25T15:07:29.985Z,13.40
2018-12-25T15:10:00.158Z,12.60
2018-12-25T15:12:30.440Z,12.20
2018-12-25T15:15:03.310Z,12.83
2018-12-25T15:17:33.443Z,12.60
2018-12-25T15:20:03.587Z,13.77
2018-12-25T15:22:33.797Z,13.80
2018-12-25T15:25:03.929Z,13.87
2018-12-25T15:27:33.987Z,13.87
2018-12-25T15:30:04.124Z,13.33
2018-12-25T15:32:34.501Z,13.37
2018-12-25T15:35:08.095Z,14.07
2018-12-25T15:37:38.148Z,17.70
2018-12-25T15:40:09.216Z,16.57
2018-12-25T15:42:39.341Z,16.87
2018-12-25T15:45:09.728Z,16.80
2018-12-25T15:47:39.865Z,15.10
2018-12-25T15:50:09.992Z,17.50
2018-12-25T15:52:40.495Z,17.73
2018-12-25T15:55:13.037Z,17.67
2018-12-25T15:57:43.143Z,16.17
2018-12-25T16:00:18.445Z,17.10
2018-12-25T16:02:48.564Z,16.50
2018-12-25T16:05:18.613Z,16.50
2018-12-25T16:07:48.765Z,17.27
2018-12-25T16:10:19.108Z,17.53
2018-12-25T16:12:49.278Z,18.23
2018-12-25T16:15:19.419Z,17.93
2018-12-25T16:17:49.713Z,18.47
2018-12-25T16:20:19.883Z,17.40
2018-12-25T16:22:58.861Z,18.07
2018-12-25T16:25:29.003Z,20.03
2018-12-25T16:28:00.762Z,20.80
2018-12-25T16:30:32.128Z,21.17
2018-12-25T16:33:03.447Z,20.67
2018-12-25T16:35:35.480Z,23.00
2018-12-25T16:38:06.105Z,22.73
2018-12-25T16:40:36.357Z,19.90
2018-12-25T16:43:06.523Z,20.17
2018-12-25T16:45:36.645Z,19.70
2018-12-25T16:48:07.109Z,20.60
2018-12-25T16:50:40.774Z,20.87
2018-12-25T16:53:11.020Z,20.33
2018-12-25T16:55:42.192Z,20.07
2018-12-25T16:58:12.465Z,20.57
2018-12-25T17:00:42.642Z,21.47
2018-12-25T17:03:12.932Z,20.13
2018-12-25T17:05:43.015Z,23.53
2018-12-25T17:08:14.201Z,23.27
2018-12-25T17:10:44.387Z,24.13
2018-12-25T17:13:14.462Z,24.80
2018-12-25T17:15:44.685Z,24.10
2018-12-25T17:18:17.577Z,23.73
2018-12-25T17:20:47.771Z,25.13
2018-12-25T17:23:17.864Z,22.43
2018-12-25T17:25:49.601Z,22.07
2018-12-25T17:28:27.623Z,22.83
2018-12-25T17:30:52.225Z,22.03
2018-12-25T17:33:22.285Z,22.47
2018-12-25T17:35:52.646Z,24.13
2018-12-25T17:38:23.276Z,24.80
2018-12-25T17:40:53.560Z,23.80
2018-12-25T17:43:23.697Z,23.83
2018-12-25T17:45:54.804Z,22.97
2018-12-25T17:48:26.055Z,23.00
2018-12-25T17:50:59.868Z,24.23
2018-12-25T17:53:31.105Z,25.17
2018-12-25T17:56:01.561Z,26.23
2018-12-25T17:58:33.778Z,26.10
2018-12-25T18:01:03.989Z,25.17
2018-12-25T18:03:35.992Z,25.47
2018-12-25T18:06:07.829Z,24.77
2018-12-25T18:08:38.067Z,24.27
2018-12-25T18:11:09.510Z,29.63
2018-12-25T18:13:39.770Z,27.00
2018-12-25T18:16:09.929Z,26.50
2018-12-25T18:18:43.568Z,27.97
2018-12-25T18:21:15.615Z,26.63
2018-12-25T18:23:45.732Z,27.40
2018-12-25T18:26:15.949Z,41.77
2018-12-25T18:28:46.132Z,36.13
2018-12-25T18:31:16.317Z,33.07
2018-12-25T18:33:46.519Z,31.93
2018-12-25T18:36:16.650Z,35.40
2018-12-25T18:38:46.699Z,32.23
2018-12-25T18:41:18.738Z,32.87
2018-12-25T18:43:48.941Z,32.30
2018-12-25T18:46:19.107Z,33.87
2018-12-25T18:48:49.323Z,32.10
2018-12-25T18:51:19.931Z,31.00
2018-12-25T18:53:50.092Z,36.20
2018-12-25T18:56:20.170Z,35.97
2018-12-25T18:58:50.218Z,36.07
2018-12-25T19:01:22.258Z,33.87
2018-12-25T19:03:52.522Z,35.70
2018-12-25T19:06:22.613Z,32.33
2018-12-25T19:08:52.837Z,34.00
2018-12-25T19:11:23.106Z,31.97
2018-12-25T19:13:53.447Z,33.80
2018-12-25T19:16:23.681Z,33.73
2018-12-25T19:18:53.765Z,32.90
2018-12-25T19:21:23.924Z,32.50
2018-12-25T19:24:03.075Z,33.30
2018-12-25T19:26:33.218Z,32.27
2018-12-25T19:29:03.380Z,33.43
2018-12-25T19:31:33.627Z,35.13
2018-12-25T19:34:03.874Z,33.97
2018-12-25T19:36:34.507Z,33.97
2018-12-25T19:39:06.900Z,32.00
2018-12-25T19:41:37.253Z,32.80
2018-12-25T19:44:14.177Z,33.37
2018-12-25T19:46:44.626Z,35.17
2018-12-25T19:49:14.789Z,35.73
2018-12-25T19:51:45.063Z,34.13
2018-12-25T19:54:15.474Z,32.33
2018-12-25T19:56:46.995Z,33.57
2018-12-25T19:59:17.355Z,31.20
2018-12-25T20:01:48.757Z,32.20
2018-12-25T20:04:45.458Z,34.77
2018-12-25T20:07:54.579Z,33.10
2018-12-25T20:10:59.900Z,32.77
2018-12-25T20:13:51.905Z,32.33
2018-12-25T20:16:49.467Z,33.00
2018-12-25T20:20:25.101Z,32.40
2018-12-25T20:23:48.786Z,31.77
2018-12-25T20:26:56.961Z,34.23
2018-12-25T20:30:04.506Z,33.87
2018-12-25T20:33:27.190Z,34.57
2018-12-25T20:36:44.106Z,33.13
2018-12-25T20:39:41.999Z,32.57
2018-12-25T20:42:55.201Z,35.00
2018-12-25T20:46:01.291Z,32.00
2018-12-25T20:49:08.631Z,36.43
2018-12-25T20:52:21.282Z,36.20
2018-12-25T20:55:28.491Z,36.93
2018-12-25T20:58:42.105Z,39.77
2018-12-25T21:01:42.834Z,39.50
2018-12-25T21:04:49.964Z,37.33
2018-12-25T21:07:58.967Z,34.87
2018-12-25T21:11:04.729Z,37.63
2018-12-25T21:14:30.864Z,37.67
2018-12-25T21:17:40.937Z,37.77
2018-12-25T21:20:56.212Z,36.63
2018-12-25T21:24:02.155Z,40.60
2018-12-25T21:27:08.022Z,37.20
2018-12-25T21:29:38.133Z,38.47
2018-12-25T21:32:08.407Z,37.90
2018-12-25T21:34:38.603Z,39.33
2018-12-25T21:37:13.726Z,37.60
2018-12-25T21:39:44.462Z,38.23
2018-12-25T21:42:15.003Z,36.77
2018-12-25T21:44:45.190Z,37.07
2018-12-25T21:47:15.741Z,35.73
2018-12-25T21:49:48.011Z,35.93
2018-12-25T21:52:18.424Z,37.53
2018-12-25T21:54:49.462Z,36.67
2018-12-25T21:57:19.724Z,37.60
2018-12-25T21:59:51.685Z,38.27
2018-12-25T22:02:22.703Z,34.83
2018-12-25T22:04:52.823Z,37.43
2018-12-25T22:07:23.127Z,36.73
2018-12-25T22:10:06.296Z,39.03
2018-12-25T22:12:36.447Z,35.67
2018-12-25T22:15:08.161Z,36.43
2018-12-25T22:17:38.381Z,35.80
2018-12-25T22:20:17.645Z,35.93
2018-12-25T22:22:47.713Z,34.80
2018-12-25T22:25:17.896Z,36.60
2018-12-25T22:27:47.991Z,37.13
2018-12-25T22:30:18.103Z,37.37
2018-12-25T22:32:48.396Z,36.87
2018-12-25T22:35:18.502Z,37.13
2018-12-25T22:37:48.594Z,35.70
2018-12-25T22:40:18.928Z,34.07
2018-12-25T22:42:49.054Z,36.53
2018-12-25T22:45:19.190Z,34.93
2018-12-25T22:47:49.434Z,36.27
2018-12-25T22:50:19.599Z,36.80
2018-12-25T22:52:49.931Z,37.53
2018-12-25T22:55:20.168Z,34.13
2018-12-25T22:57:50.225Z,34.23
2018-12-25T23:00:21.836Z,34.93
2018-12-25T23:02:52.011Z,34.47
2018-12-25T23:05:22.058Z,33.80
2018-12-25T23:07:52.132Z,36.73
2018-12-25T23:10:22.215Z,36.33
2018-12-25T23:12:52.408Z,36.70
2018-12-25T23:15:22.573Z,34.40
2018-12-25T23:17:52.855Z,35.80
2018-12-25T23:20:28.624Z,36.80
2018-12-25T23:22:54.771Z,37.17
2018-12-25T23:25:25.020Z,34.53
2018-12-25T23:27:55.116Z,36.93
2018-12-25T23:30:25.350Z,36.30
2018-12-25T23:32:55.445Z,37.97
2018-12-25T23:35:25.563Z,36.90
2018-12-25T23:37:55.630Z,35.10
2018-12-25T23:40:26.038Z,36.20
2018-12-25T23:42:56.202Z,36.57
2018-12-25T23:45:26.352Z,35.40
2018-12-25T23:47:56.430Z,36.60
2018-12-25T23:50:26.514Z,36.90
2018-12-25T23:52:56.609Z,36.53
2018-12-25T23:55:26.742Z,36.17
2018-12-25T23:57:57.019Z,34.33
